createdAt,value
2023-01-23T00:00:15.703Z,25.55
2023-01-23T00:01:22.594Z,25.75
2023-01-23T00:02:25.374Z,26.88
2023-01-23T00:03:27.452Z,25.15
2023-01-23T00:04:29.419Z,28.90
2023-01-23T00:05:31.468Z,31.77
2023-01-23T00:06:33.232Z,34.50
2023-01-23T00:07:35.252Z,33.15
2023-01-23T00:08:37.597Z,30.05
2023-01-23T00:09:39.501Z,34.83
2023-01-23T00:10:41.341Z,36.80
2023-01-23T00:11:43.277Z,36.83
2023-01-23T00:12:45.805Z,38.17
2023-01-23T00:13:49.068Z,40.00
2023-01-23T00:14:51.281Z,38.28
2023-01-23T00:15:53.722Z,38.97
2023-01-23T00:16:55.455Z,39.33
2023-01-23T00:17:58.318Z,38.05
2023-01-23T00:19:00.764Z,38.03
2023-01-23T00:20:04.516Z,40.05
2023-01-23T00:21:08.653Z,35.25
2023-01-23T00:22:11.360Z,38.53
2023-01-23T00:23:15.114Z,36.95
2023-01-23T00:24:17.030Z,40.13
2023-01-23T00:25:18.713Z,38.58
2023-01-23T00:26:24.812Z,39.22
2023-01-23T00:27:27.536Z,37.17
2023-01-23T00:28:29.450Z,38.03
2023-01-23T00:29:31.163Z,37.58
2023-01-23T00:30:33.999Z,35.85
2023-01-23T00:31:38.392Z,38.03
2023-01-23T00:32:40.247Z,35.05
2023-01-23T00:33:44.003Z,35.03
2023-01-23T00:34:46.902Z,38.22
2023-01-23T00:35:48.509Z,37.45
2023-01-23T00:36:50.358Z,36.72
2023-01-23T00:37:52.136Z,35.17
2023-01-23T00:38:53.901Z,36.42
2023-01-23T00:39:55.788Z,36.25
2023-01-23T00:40:57.916Z,36.38
2023-01-23T00:41:59.845Z,37.95
2023-01-23T00:43:02.788Z,36.13
2023-01-23T00:44:05.042Z,36.38
2023-01-23T00:45:07.282Z,37.50
2023-01-23T00:46:10.183Z,34.42
2023-01-23T00:47:13.666Z,37.28
2023-01-23T00:48:16.065Z,37.97
2023-01-23T00:49:17.938Z,37.20
2023-01-23T00:50:19.996Z,36.58
2023-01-23T00:51:22.188Z,37.03
2023-01-23T00:52:23.909Z,35.70
2023-01-23T00:53:25.865Z,35.00
2023-01-23T00:54:27.631Z,35.63
2023-01-23T00:55:29.504Z,39.03
2023-01-23T00:56:32.596Z,39.08
2023-01-23T00:57:34.401Z,37.47
2023-01-23T00:58:36.678Z,36.88
2023-01-23T00:59:38.657Z,37.30
2023-01-23T01:00:40.795Z,37.13
2023-01-23T01:01:42.582Z,39.05
2023-01-23T01:02:45.442Z,35.08
2023-01-23T01:03:47.750Z,38.28
2023-01-23T01:04:49.499Z,35.50
2023-01-23T01:05:52.216Z,37.35
2023-01-23T01:06:54.154Z,36.53
2023-01-23T01:07:55.928Z,36.63
2023-01-23T01:08:58.881Z,36.95
2023-01-23T01:10:01.139Z,38.20
2023-01-23T01:11:03.157Z,35.05
2023-01-23T01:12:05.638Z,36.53
2023-01-23T01:13:08.289Z,38.40
2023-01-23T01:14:10.779Z,36.60
2023-01-23T01:15:13.535Z,37.83
2023-01-23T01:16:15.615Z,38.85
2023-01-23T01:17:17.496Z,40.13
2023-01-23T01:18:21.644Z,38.53
2023-01-23T01:19:23.450Z,30.02
2023-01-23T01:20:27.095Z,37.30
2023-01-23T01:21:29.285Z,36.10
2023-01-23T01:22:31.506Z,35.70
2023-01-23T01:23:33.628Z,37.50
2023-01-23T01:24:35.613Z,40.35
2023-01-23T01:25:37.873Z,39.05
2023-01-23T01:26:40.395Z,37.97
2023-01-23T01:27:42.206Z,35.13
2023-01-23T01:28:44.175Z,35.80
2023-01-23T01:29:45.932Z,33.70
2023-01-23T01:30:47.836Z,37.28
2023-01-23T01:31:49.766Z,41.55
2023-01-23T01:32:54.084Z,36.42
2023-01-23T01:33:56.096Z,41.75
2023-01-23T01:34:57.915Z,39.40
2023-01-23T01:35:59.727Z,40.47
2023-01-23T01:37:02.034Z,43.78
2023-01-23T01:38:03.931Z,42.50
2023-01-23T01:39:06.731Z,44.03
2023-01-23T01:40:13.575Z,41.60
2023-01-23T01:41:16.436Z,42.10
2023-01-23T01:42:18.586Z,42.75
2023-01-23T01:43:24.815Z,42.55
2023-01-23T01:44:28.992Z,40.47
2023-01-23T01:46:08.785Z,42.00
2023-01-23T01:47:16.011Z,40.45
2023-01-23T01:48:20.114Z,39.80
2023-01-23T01:49:30.563Z,42.40
2023-01-23T01:50:32.309Z,37.47
2023-01-23T01:51:50.779Z,35.80
2023-01-23T01:52:53.176Z,40.17
2023-01-23T01:54:21.992Z,39.05
2023-01-23T01:55:25.026Z,36.53
2023-01-23T01:56:29.030Z,35.55
2023-01-23T01:57:36.166Z,36.78
2023-01-23T01:58:40.770Z,29.63
2023-01-23T02:00:10.430Z,33.90
2023-01-23T02:01:12.300Z,31.33
2023-01-23T02:02:19.565Z,31.98
2023-01-23T02:03:21.700Z,32.97
2023-01-23T02:04:24.012Z,33.25
2023-01-23T02:05:31.479Z,30.80
2023-01-23T02:06:33.218Z,30.20
2023-01-23T02:07:46.229Z,29.20
2023-01-23T02:08:57.218Z,25.98
2023-01-23T02:09:59.770Z,26.85
2023-01-23T02:11:05.339Z,27.48
2023-01-23T02:12:07.543Z,26.52
2023-01-23T02:13:39.813Z,29.52
2023-01-23T02:14:42.507Z,28.10
2023-01-23T02:15:45.227Z,29.10
2023-01-23T02:16:51.172Z,27.75
2023-01-23T02:17:54.930Z,28.85
2023-01-23T02:19:08.636Z,26.55
2023-01-23T02:20:27.981Z,25.13
2023-01-23T02:21:31.642Z,27.25
2023-01-23T02:22:57.865Z,25.63
2023-01-23T02:24:25.764Z,26.17
2023-01-23T02:25:46.135Z,25.25
2023-01-23T02:26:48.269Z,23.70
2023-01-23T02:27:50.268Z,25.85
2023-01-23T02:28:54.197Z,25.27
2023-01-23T02:29:56.770Z,25.63
2023-01-23T02:30:58.878Z,25.30
2023-01-23T02:32:00.790Z,23.80
2023-01-23T02:33:21.319Z,24.67
2023-01-23T02:34:23.835Z,23.70
2023-01-23T02:35:30.772Z,27.52
2023-01-23T02:36:34.967Z,25.90
2023-01-23T02:37:40.944Z,24.52
2023-01-23T02:38:54.691Z,23.33
2023-01-23T02:39:56.935Z,23.48
2023-01-23T02:41:05.824Z,23.83
2023-01-23T02:42:08.559Z,23.52
2023-01-23T02:43:16.188Z,24.27
2023-01-23T02:44:27.826Z,21.80
2023-01-23T02:45:30.949Z,22.83
2023-01-23T02:46:36.509Z,23.38
2023-01-23T02:47:40.783Z,23.35
2023-01-23T02:48:44.128Z,23.98
2023-01-23T02:49:47.303Z,24.27
2023-01-23T02:50:51.870Z,24.02
2023-01-23T02:51:56.807Z,21.42
2023-01-23T02:52:59.566Z,21.52
2023-01-23T02:54:03.836Z,21.48
2023-01-23T02:55:06.307Z,22.40
2023-01-23T02:56:09.160Z,22.00
2023-01-23T02:57:11.676Z,22.70
2023-01-23T02:58:32.543Z,21.20
2023-01-23T02:59:53.141Z,19.95
2023-01-23T03:00:55.208Z,19.08
2023-01-23T03:01:57.713Z,17.73
2023-01-23T03:02:59.577Z,18.80
2023-01-23T03:04:04.682Z,17.90
2023-01-23T03:05:07.481Z,19.05
2023-01-23T03:06:10.481Z,19.08
2023-01-23T03:07:13.033Z,18.23
2023-01-23T03:08:15.475Z,17.65
2023-01-23T03:09:18.222Z,18.70
2023-01-23T03:10:20.691Z,19.10
2023-01-23T03:11:23.847Z,18.88
2023-01-23T03:12:25.769Z,18.55
2023-01-23T03:13:27.523Z,18.52
2023-01-23T03:14:30.130Z,17.83
2023-01-23T03:15:32.063Z,17.20
2023-01-23T03:16:36.614Z,17.65
2023-01-23T03:17:40.202Z,18.17
2023-01-23T03:18:53.462Z,17.73
2023-01-23T03:19:57.840Z,18.40
2023-01-23T03:21:07.310Z,16.13
2023-01-23T03:22:09.570Z,17.35
2023-01-23T03:23:11.806Z,17.48
2023-01-23T03:24:14.563Z,19.13
2023-01-23T03:25:17.039Z,18.85
2023-01-23T03:26:18.801Z,17.98
2023-01-23T03:27:20.717Z,18.02
2023-01-23T03:28:41.023Z,16.33
2023-01-23T03:30:01.923Z,16.33
2023-01-23T03:31:03.824Z,18.10
2023-01-23T03:32:06.852Z,18.02
2023-01-23T03:33:09.188Z,17.48
2023-01-23T03:34:11.479Z,17.58
2023-01-23T03:35:16.637Z,17.73
2023-01-23T03:36:20.078Z,18.70
2023-01-23T03:37:22.136Z,17.55
2023-01-23T03:38:24.143Z,19.85
2023-01-23T03:39:44.434Z,20.05
2023-01-23T03:41:04.806Z,20.30
2023-01-23T03:42:07.124Z,18.02
2023-01-23T03:43:10.255Z,19.38
2023-01-23T03:44:13.890Z,19.17
2023-01-23T03:45:15.731Z,19.85
2023-01-23T03:46:17.726Z,20.23
2023-01-23T03:47:21.006Z,19.73
2023-01-23T03:48:22.746Z,18.92
2023-01-23T03:49:25.188Z,19.58
2023-01-23T03:50:27.678Z,19.50
2023-01-23T03:51:29.902Z,20.33
2023-01-23T03:52:32.377Z,19.88
2023-01-23T03:53:34.754Z,20.38
2023-01-23T03:54:37.060Z,19.20
2023-01-23T03:55:39.065Z,20.42
2023-01-23T03:56:42.450Z,20.83
2023-01-23T03:57:44.229Z,20.55
2023-01-23T03:58:46.191Z,19.58
2023-01-23T03:59:48.580Z,19.35
2023-01-23T04:00:50.824Z,20.67
2023-01-23T04:01:52.585Z,19.73
2023-01-23T04:02:54.910Z,20.27
2023-01-23T04:03:57.146Z,20.70
2023-01-23T04:04:58.842Z,21.30
2023-01-23T04:06:00.729Z,19.75
2023-01-23T04:07:04.127Z,21.05
2023-01-23T04:08:05.916Z,19.98
2023-01-23T04:09:07.712Z,21.67
2023-01-23T04:10:12.102Z,20.90
2023-01-23T04:11:15.078Z,19.52
2023-01-23T04:12:17.315Z,23.73
2023-01-23T04:13:19.125Z,21.05
2023-01-23T04:14:22.082Z,21.48
2023-01-23T04:15:23.921Z,21.83
2023-01-23T04:16:27.711Z,21.25
2023-01-23T04:17:31.211Z,20.38
2023-01-23T04:18:33.728Z,20.13
2023-01-23T04:19:36.098Z,20.90
2023-01-23T04:20:38.410Z,20.75
2023-01-23T04:21:40.469Z,20.30
2023-01-23T04:22:42.416Z,21.35
2023-01-23T04:23:44.349Z,23.80
2023-01-23T04:24:46.726Z,23.02
2023-01-23T04:25:48.973Z,21.65
2023-01-23T04:26:51.895Z,21.05
2023-01-23T04:27:53.767Z,23.13
2023-01-23T04:28:55.576Z,22.45
2023-01-23T04:29:58.627Z,21.20
2023-01-23T04:31:01.659Z,21.05
2023-01-23T04:32:04.868Z,23.35
2023-01-23T04:33:07.466Z,19.08
2023-01-23T04:34:09.532Z,21.42
2023-01-23T04:35:11.276Z,22.23
2023-01-23T04:36:13.715Z,22.50
2023-01-23T04:37:15.680Z,21.73
2023-01-23T04:38:17.825Z,21.67
2023-01-23T04:39:20.106Z,24.38
2023-01-23T04:40:22.501Z,22.55
2023-01-23T04:41:27.059Z,23.77
2023-01-23T04:42:28.926Z,23.20
2023-01-23T04:43:31.569Z,24.02
2023-01-23T04:44:33.771Z,24.30
2023-01-23T04:45:35.823Z,27.00
2023-01-23T04:46:39.309Z,25.40
2023-01-23T04:47:41.099Z,25.67
2023-01-23T04:48:44.230Z,25.58
2023-01-23T04:49:45.943Z,26.13
2023-01-23T04:50:48.767Z,27.30
2023-01-23T04:51:51.583Z,26.00
2023-01-23T04:52:54.023Z,26.13
2023-01-23T04:53:56.084Z,27.10
2023-01-23T04:54:58.339Z,26.25
2023-01-23T04:56:01.226Z,29.35
2023-01-23T04:57:03.187Z,27.50
2023-01-23T04:58:05.028Z,29.70
2023-01-23T04:59:06.973Z,28.08
2023-01-23T05:00:11.000Z,29.58
2023-01-23T05:01:13.232Z,29.48
2023-01-23T05:02:16.374Z,28.17
2023-01-23T05:03:18.882Z,30.38
2023-01-23T05:04:20.553Z,30.05
2023-01-23T05:05:24.471Z,30.38
2023-01-23T05:06:26.934Z,27.02
2023-01-23T05:07:29.107Z,27.50
2023-01-23T05:08:31.239Z,29.92
2023-01-23T05:09:33.383Z,30.80
2023-01-23T05:10:35.102Z,28.92
2023-01-23T05:11:37.807Z,28.35
2023-01-23T05:12:40.703Z,27.08
2023-01-23T05:13:42.753Z,26.27
2023-01-23T05:14:45.312Z,29.35
2023-01-23T05:15:47.182Z,27.88
2023-01-23T05:16:49.615Z,28.10
2023-01-23T05:17:51.513Z,31.98
2023-01-23T05:18:53.318Z,32.40
2023-01-23T05:19:55.254Z,28.48
2023-01-23T05:20:57.051Z,30.23
2023-01-23T05:21:58.969Z,27.73
2023-01-23T05:23:00.830Z,25.63
2023-01-23T05:24:02.513Z,28.67
2023-01-23T05:25:05.038Z,27.15
2023-01-23T05:26:07.193Z,25.95
2023-01-23T05:27:09.449Z,28.20
2023-01-23T05:28:11.847Z,27.17
2023-01-23T05:29:14.251Z,25.45
2023-01-23T05:30:17.785Z,27.65
2023-01-23T05:31:19.878Z,29.25
2023-01-23T05:32:21.855Z,27.83
2023-01-23T05:33:23.926Z,27.33
2023-01-23T05:34:26.396Z,27.00
2023-01-23T05:35:29.261Z,25.95
2023-01-23T05:36:31.199Z,28.25
2023-01-23T05:37:33.403Z,33.53
2023-01-23T05:38:35.450Z,30.50
2023-01-23T05:39:37.149Z,27.83
2023-01-23T05:40:38.997Z,27.90
2023-01-23T05:41:40.779Z,25.05
2023-01-23T05:42:42.424Z,25.45
2023-01-23T05:43:45.118Z,27.75
2023-01-23T05:44:47.103Z,27.58
2023-01-23T05:45:49.037Z,26.15
2023-01-23T05:46:51.069Z,28.30
2023-01-23T05:47:52.923Z,31.20
2023-01-23T05:48:54.788Z,30.13
2023-01-23T05:49:56.651Z,26.98
2023-01-23T05:50:58.427Z,26.77
2023-01-23T05:52:00.234Z,28.35
2023-01-23T05:53:02.215Z,30.55
2023-01-23T05:54:04.252Z,30.10
2023-01-23T05:55:06.573Z,30.83
2023-01-23T05:56:09.215Z,28.45
2023-01-23T05:57:11.843Z,28.40
2023-01-23T05:58:15.983Z,27.63
2023-01-23T05:59:17.983Z,28.50
2023-01-23T06:00:20.748Z,28.90
2023-01-23T06:01:22.887Z,27.67
2023-01-23T06:02:24.695Z,29.60
2023-01-23T06:03:27.056Z,27.23
2023-01-23T06:04:28.872Z,29.35
2023-01-23T06:05:30.751Z,32.85
2023-01-23T06:06:32.396Z,28.98
2023-01-23T06:07:34.267Z,29.85
2023-01-23T06:08:35.928Z,30.65
2023-01-23T06:09:37.880Z,32.83
2023-01-23T06:10:41.781Z,31.02
2023-01-23T06:11:44.143Z,29.55
2023-01-23T06:12:46.072Z,29.20
2023-01-23T06:13:47.866Z,28.42
2023-01-23T06:14:49.866Z,29.52
2023-01-23T06:15:52.031Z,30.25
2023-01-23T06:16:54.227Z,30.25
2023-01-23T06:17:56.158Z,30.02
2023-01-23T06:18:58.522Z,28.85
2023-01-23T06:20:00.599Z,30.20
2023-01-23T06:21:02.456Z,28.83
2023-01-23T06:22:04.365Z,29.90
2023-01-23T06:23:06.126Z,27.25
2023-01-23T06:24:08.610Z,27.08
2023-01-23T06:25:10.854Z,29.33
2023-01-23T06:26:13.395Z,28.80
2023-01-23T06:27:15.599Z,29.50
2023-01-23T06:28:18.276Z,28.08
2023-01-23T06:29:20.183Z,27.92
2023-01-23T06:30:22.357Z,26.92
2023-01-23T06:31:25.129Z,27.50
2023-01-23T06:32:27.455Z,29.33
2023-01-23T06:33:29.606Z,26.60
2023-01-23T06:34:31.778Z,27.85
2023-01-23T06:35:33.788Z,28.90
2023-01-23T06:36:36.425Z,27.33
2023-01-23T06:37:39.122Z,26.65
2023-01-23T06:38:40.941Z,26.42
2023-01-23T06:39:43.539Z,27.58
2023-01-23T06:40:45.457Z,27.60
2023-01-23T06:41:47.293Z,26.90
2023-01-23T06:42:50.980Z,28.90
2023-01-23T06:43:53.702Z,28.50
2023-01-23T06:44:55.888Z,30.27
2023-01-23T06:45:57.962Z,29.30
2023-01-23T06:46:59.701Z,28.75
2023-01-23T06:48:01.544Z,26.13
2023-01-23T06:49:06.218Z,27.45
2023-01-23T06:50:08.977Z,26.50
2023-01-23T06:51:11.152Z,25.80
2023-01-23T06:52:13.608Z,25.42
2023-01-23T06:53:16.725Z,23.92
2023-01-23T06:54:18.425Z,24.88
2023-01-23T06:55:21.399Z,24.98
2023-01-23T06:56:23.210Z,25.73
2023-01-23T06:57:25.005Z,24.45
2023-01-23T06:58:27.780Z,25.65
2023-01-23T06:59:29.507Z,23.45
2023-01-23T07:00:32.589Z,23.92
2023-01-23T07:01:35.393Z,25.27
2023-01-23T07:02:39.720Z,23.50
2023-01-23T07:03:45.040Z,24.58
2023-01-23T07:04:47.155Z,23.55
2023-01-23T07:05:49.234Z,25.33
2023-01-23T07:06:51.542Z,24.80
2023-01-23T07:07:53.245Z,26.67
2023-01-23T07:08:56.307Z,24.17
2023-01-23T07:09:58.072Z,23.20
2023-01-23T07:11:00.877Z,24.05
2023-01-23T07:12:02.648Z,23.33
2023-01-23T07:13:06.059Z,23.92
2023-01-23T07:14:07.961Z,22.48
2023-01-23T07:15:10.362Z,22.25
2023-01-23T07:16:12.073Z,22.95
2023-01-23T07:17:14.382Z,22.95
2023-01-23T07:18:16.180Z,24.40
2023-01-23T07:19:18.019Z,20.48
2023-01-23T07:20:20.851Z,20.00
2023-01-23T07:21:22.941Z,21.58
2023-01-23T07:22:24.698Z,20.95
2023-01-23T07:23:26.780Z,20.27
2023-01-23T07:24:31.800Z,18.23
2023-01-23T07:25:33.866Z,17.83
2023-01-23T07:26:35.767Z,16.50
2023-01-23T07:27:37.588Z,17.92
2023-01-23T07:28:40.055Z,18.35
2023-01-23T07:29:43.541Z,17.85
2023-01-23T07:30:47.202Z,18.30
2023-01-23T07:31:49.598Z,19.00
2023-01-23T07:32:51.372Z,17.88
2023-01-23T07:33:53.599Z,17.27
2023-01-23T07:34:55.463Z,17.55
2023-01-23T07:35:57.598Z,18.65
2023-01-23T07:36:59.331Z,17.75
2023-01-23T07:38:01.322Z,15.45
2023-01-23T07:39:03.389Z,16.17
2023-01-23T07:40:05.668Z,16.10
2023-01-23T07:41:07.652Z,16.25
2023-01-23T07:42:10.243Z,16.83
2023-01-23T07:43:12.463Z,18.17
2023-01-23T07:44:19.903Z,17.75
2023-01-23T07:45:21.688Z,14.48
2023-01-23T07:46:26.173Z,15.38
2023-01-23T07:47:28.579Z,16.88
2023-01-23T07:48:30.671Z,16.23
2023-01-23T07:49:32.994Z,16.23
2023-01-23T07:50:36.010Z,14.75
2023-01-23T07:51:38.063Z,14.00
2023-01-23T07:52:40.726Z,15.55
2023-01-23T07:53:42.628Z,14.90
2023-01-23T07:54:44.371Z,15.70
2023-01-23T07:55:46.243Z,17.40
2023-01-23T07:56:52.414Z,17.95
2023-01-23T07:57:55.411Z,18.88
2023-01-23T07:58:57.592Z,18.98
2023-01-23T07:59:59.619Z,17.00
2023-01-23T08:01:08.273Z,19.67
2023-01-23T08:02:10.916Z,19.48
2023-01-23T08:03:13.023Z,19.70
2023-01-23T08:04:15.335Z,19.83
2023-01-23T08:05:17.417Z,18.63
2023-01-23T08:06:20.203Z,19.10
2023-01-23T08:07:22.702Z,18.05
2023-01-23T08:08:25.766Z,17.08
2023-01-23T08:09:27.862Z,18.60
2023-01-23T08:10:30.013Z,17.08
2023-01-23T08:11:34.165Z,17.67
2023-01-23T08:12:36.675Z,17.65
2023-01-23T08:13:39.081Z,17.92
2023-01-23T08:14:41.716Z,18.10
2023-01-23T08:15:43.567Z,19.42
2023-01-23T08:16:49.092Z,18.55
2023-01-23T08:17:50.879Z,18.30
2023-01-23T08:18:54.423Z,18.52
2023-01-23T08:19:56.631Z,18.40
2023-01-23T08:21:01.885Z,17.23
2023-01-23T08:22:04.682Z,19.63
2023-01-23T08:23:06.569Z,18.17
2023-01-23T08:24:10.512Z,19.38
2023-01-23T08:25:12.334Z,24.05
2023-01-23T08:26:16.898Z,17.95
2023-01-23T08:27:18.959Z,19.25
2023-01-23T08:28:21.551Z,19.90
2023-01-23T08:29:23.232Z,20.10
2023-01-23T08:30:25.436Z,21.08
2023-01-23T08:31:33.452Z,18.10
2023-01-23T08:32:36.544Z,18.30
2023-01-23T08:33:40.809Z,18.63
2023-01-23T08:34:44.062Z,20.67
2023-01-23T08:35:53.873Z,19.73
2023-01-23T08:36:58.009Z,21.10
2023-01-23T08:38:00.452Z,19.85
2023-01-23T08:39:02.595Z,19.25
2023-01-23T08:40:05.806Z,18.73
2023-01-23T08:41:09.991Z,18.33
2023-01-23T08:42:12.964Z,19.70
2023-01-23T08:43:16.814Z,20.73
2023-01-23T08:44:18.758Z,22.10
2023-01-23T08:45:23.475Z,19.55
2023-01-23T08:46:26.762Z,20.13
2023-01-23T08:47:28.786Z,19.50
2023-01-23T08:48:31.373Z,19.65
2023-01-23T08:49:33.882Z,20.67
2023-01-23T08:50:36.147Z,21.05
2023-01-23T08:51:38.227Z,19.40
2023-01-23T08:52:40.925Z,21.40
2023-01-23T08:53:42.853Z,21.77
2023-01-23T08:54:45.488Z,18.80
2023-01-23T08:55:47.469Z,19.35
2023-01-23T08:56:49.515Z,19.15
2023-01-23T08:57:51.432Z,20.40
2023-01-23T08:58:53.485Z,20.13
2023-01-23T08:59:55.185Z,19.17
2023-01-23T09:00:59.471Z,18.30
2023-01-23T09:02:01.483Z,19.92
2023-01-23T09:03:04.058Z,21.67
2023-01-23T09:04:06.598Z,21.77
2023-01-23T09:05:09.163Z,20.08
2023-01-23T09:06:15.799Z,20.27
2023-01-23T09:07:17.704Z,19.55
2023-01-23T09:08:20.064Z,19.15
2023-01-23T09:09:22.283Z,19.30
2023-01-23T09:10:26.097Z,18.67
2023-01-23T09:11:28.757Z,18.00
2023-01-23T09:12:33.938Z,17.77
2023-01-23T09:13:38.466Z,19.00
2023-01-23T09:14:40.932Z,17.13
2023-01-23T09:15:43.588Z,15.18
2023-01-23T09:16:45.501Z,16.67
2023-01-23T09:17:48.522Z,18.77
2023-01-23T09:18:50.858Z,19.10
2023-01-23T09:19:54.139Z,18.60
2023-01-23T09:20:56.243Z,15.60
2023-01-23T09:21:58.482Z,15.98
2023-01-23T09:23:00.395Z,16.73
2023-01-23T09:24:02.301Z,16.55
2023-01-23T09:25:04.740Z,18.38
2023-01-23T09:26:09.129Z,17.17
2023-01-23T09:27:11.318Z,17.80
2023-01-23T09:28:13.257Z,17.83
2023-01-23T09:29:15.667Z,19.25
2023-01-23T09:30:17.923Z,17.42
2023-01-23T09:31:20.112Z,16.35
2023-01-23T09:32:25.006Z,17.75
2023-01-23T09:33:30.806Z,17.38
2023-01-23T09:34:32.968Z,18.42
2023-01-23T09:35:35.349Z,18.27
2023-01-23T09:36:43.175Z,18.88
2023-01-23T09:38:00.843Z,18.95
2023-01-23T09:39:03.722Z,17.70
2023-01-23T09:40:08.925Z,18.75
2023-01-23T09:41:27.894Z,17.90
2023-01-23T09:42:33.988Z,15.57
2023-01-23T09:43:46.272Z,16.45
2023-01-23T09:44:57.876Z,17.05
2023-01-23T09:46:01.653Z,17.60
2023-01-23T09:47:32.888Z,15.65
2023-01-23T09:48:55.123Z,15.40
2023-01-23T09:50:02.871Z,15.75
2023-01-23T09:51:21.348Z,16.13
2023-01-23T09:52:28.499Z,16.15
2023-01-23T09:53:37.631Z,17.17
2023-01-23T09:54:55.051Z,16.73
2023-01-23T09:56:05.213Z,16.55
2023-01-23T09:57:19.767Z,17.77
2023-01-23T09:58:32.291Z,15.95
2023-01-23T09:59:50.251Z,16.02
2023-01-23T10:01:01.084Z,15.27
2023-01-23T10:02:11.738Z,15.00
2023-01-23T10:03:20.607Z,14.43
2023-01-23T10:04:23.556Z,14.68
2023-01-23T10:05:41.460Z,14.93
2023-01-23T10:06:55.470Z,15.10
2023-01-23T10:08:22.182Z,16.42
2023-01-23T10:09:51.776Z,16.92
2023-01-23T10:11:05.388Z,15.88
2023-01-23T10:12:11.138Z,15.10
2023-01-23T10:13:18.940Z,15.55
2023-01-23T10:14:36.791Z,15.77
2023-01-23T10:16:18.501Z,18.27
2023-01-23T10:17:37.892Z,15.60
2023-01-23T10:18:47.641Z,16.65
2023-01-23T10:20:14.942Z,15.65
2023-01-23T10:21:25.931Z,17.63
2023-01-23T10:22:52.880Z,16.60
2023-01-23T10:24:03.009Z,17.52
2023-01-23T10:25:22.730Z,16.52
2023-01-23T10:26:33.859Z,15.40
2023-01-23T10:27:45.643Z,15.98
2023-01-23T10:28:48.724Z,13.90
2023-01-23T10:29:58.655Z,15.55
2023-01-23T10:31:04.051Z,16.60
2023-01-23T10:32:25.059Z,14.25
2023-01-23T10:33:42.323Z,14.75
2023-01-23T10:34:54.381Z,13.30
2023-01-23T10:36:17.646Z,13.05
2023-01-23T10:38:10.942Z,14.30
2023-01-23T10:39:25.778Z,13.35
2023-01-23T10:40:46.435Z,13.93
2023-01-23T10:41:51.253Z,13.35
2023-01-23T10:43:02.844Z,14.98
2023-01-23T10:44:25.364Z,15.57
2023-01-23T10:45:27.549Z,16.40
2023-01-23T10:46:35.556Z,15.45
2023-01-23T10:47:46.369Z,15.07
2023-01-23T10:48:54.107Z,14.20
2023-01-23T10:49:56.422Z,13.55
2023-01-23T10:50:58.955Z,13.60
2023-01-23T10:52:02.297Z,14.23
2023-01-23T10:53:10.882Z,15.02
2023-01-23T10:54:30.936Z,14.20
2023-01-23T10:55:35.282Z,15.55
2023-01-23T10:56:47.784Z,13.05
2023-01-23T10:57:56.227Z,11.93
2023-01-23T10:59:02.330Z,12.93
2023-01-23T11:00:25.372Z,13.82
2023-01-23T11:01:35.391Z,14.45
2023-01-23T11:02:40.511Z,14.45
2023-01-23T11:03:45.749Z,15.32
2023-01-23T11:04:51.960Z,19.00
2023-01-23T11:06:16.573Z,23.63
2023-01-23T11:07:22.235Z,16.70
2023-01-23T11:08:31.073Z,15.98
2023-01-23T11:09:33.749Z,19.38
2023-01-23T11:10:36.389Z,16.98
2023-01-23T11:11:40.697Z,14.75
2023-01-23T11:12:51.930Z,16.15
2023-01-23T11:14:07.858Z,16.95
2023-01-23T11:15:20.222Z,14.77
2023-01-23T11:16:24.660Z,16.20
2023-01-23T11:17:34.181Z,16.15
2023-01-23T11:18:45.057Z,15.50
2023-01-23T11:19:49.588Z,14.77
2023-01-23T11:20:55.834Z,15.07
2023-01-23T11:22:03.505Z,15.27
2023-01-23T11:23:11.878Z,15.57
2023-01-23T11:24:39.678Z,15.73
2023-01-23T11:25:50.268Z,15.77
2023-01-23T11:27:02.406Z,16.10
2023-01-23T11:28:20.775Z,16.25
2023-01-23T11:29:26.263Z,16.70
2023-01-23T11:30:45.034Z,14.02
2023-01-23T11:31:48.101Z,12.20
2023-01-23T11:33:02.261Z,19.13
2023-01-23T11:34:14.153Z,18.85
2023-01-23T11:35:21.850Z,17.30
2023-01-23T11:36:30.627Z,18.55
2023-01-23T11:37:40.430Z,23.60
2023-01-23T11:38:52.611Z,19.40
2023-01-23T11:40:07.413Z,19.30
2023-01-23T11:41:12.767Z,17.75
2023-01-23T11:42:16.485Z,19.35
2023-01-23T11:43:21.336Z,19.55
2023-01-23T11:44:28.188Z,23.33
2023-01-23T11:46:02.068Z,22.08
2023-01-23T11:47:07.605Z,30.23
2023-01-23T11:48:19.509Z,20.95
2023-01-23T11:49:29.976Z,23.23
2023-01-23T11:50:55.320Z,18.83
2023-01-23T11:52:23.330Z,25.33
2023-01-23T11:53:45.336Z,20.25
2023-01-23T11:55:03.985Z,22.80
2023-01-23T11:56:18.977Z,19.25
2023-01-23T11:57:36.608Z,18.98
2023-01-23T11:58:59.723Z,18.83
2023-01-23T12:00:24.131Z,20.17
2023-01-23T12:02:14.177Z,21.15
2023-01-23T12:03:51.200Z,21.05
2023-01-23T12:05:15.327Z,21.25
2023-01-23T12:06:42.902Z,20.40
2023-01-23T12:08:08.733Z,22.20
2023-01-23T12:09:20.372Z,19.38
2023-01-23T12:10:49.209Z,20.27
2023-01-23T12:12:04.775Z,27.02
2023-01-23T12:13:21.482Z,18.50
2023-01-23T12:14:31.997Z,22.92
2023-01-23T12:15:55.892Z,25.58
2023-01-23T12:17:20.918Z,19.90
2023-01-23T12:18:45.670Z,19.95
2023-01-23T12:20:02.249Z,20.48
2023-01-23T12:21:04.320Z,19.95
2023-01-23T12:22:25.110Z,20.77
2023-01-23T12:24:04.779Z,18.02
2023-01-23T12:25:34.062Z,20.35
2023-01-23T12:26:45.271Z,19.77
2023-01-23T12:27:50.282Z,17.92
2023-01-23T12:29:34.851Z,18.75
2023-01-23T12:30:59.545Z,20.83
2023-01-23T12:32:23.025Z,24.00
2023-01-23T12:33:50.431Z,20.33
2023-01-23T12:35:29.212Z,19.88
2023-01-23T12:36:44.413Z,17.70
2023-01-23T12:38:24.399Z,19.30
2023-01-23T12:39:49.793Z,18.90
2023-01-23T12:41:07.192Z,16.58
2023-01-23T12:42:16.062Z,19.77
2023-01-23T12:43:34.252Z,17.75
2023-01-23T12:44:43.708Z,17.20
2023-01-23T12:46:00.681Z,17.30
2023-01-23T12:47:18.607Z,18.88
2023-01-23T12:48:31.322Z,16.80
2023-01-23T12:49:51.602Z,16.92
2023-01-23T12:51:03.540Z,16.40
2023-01-23T12:52:30.313Z,18.25
2023-01-23T12:53:37.629Z,17.25
2023-01-23T12:55:24.700Z,19.05
2023-01-23T12:56:33.891Z,17.73
2023-01-23T12:58:06.873Z,16.90
2023-01-23T12:59:21.348Z,17.60
2023-01-23T13:00:56.140Z,16.83
2023-01-23T13:02:07.642Z,17.15
2023-01-23T13:03:44.835Z,16.15
2023-01-23T13:04:51.723Z,18.95
2023-01-23T13:06:00.763Z,18.08
2023-01-23T13:07:25.256Z,17.65
2023-01-23T13:08:57.747Z,18.35
2023-01-23T13:10:56.378Z,20.60
2023-01-23T13:12:30.268Z,18.02
2023-01-23T13:13:35.660Z,17.20
2023-01-23T13:15:34.227Z,18.88
2023-01-23T13:16:15.165Z,17.95
2023-01-23T13:17:43.191Z,18.25
2023-01-23T13:19:21.660Z,19.55
2023-01-23T13:20:53.593Z,20.00
2023-01-23T13:22:22.235Z,18.15
2023-01-23T13:23:33.715Z,20.50
2023-01-23T13:25:04.487Z,19.15
2023-01-23T13:26:15.464Z,18.85
2023-01-23T13:27:46.521Z,19.60
2023-01-23T13:28:56.153Z,19.20
2023-01-23T13:30:26.435Z,19.58
2023-01-23T13:31:45.579Z,17.58
2023-01-23T13:32:52.312Z,19.90
2023-01-23T13:34:15.407Z,17.70
2023-01-23T13:35:41.716Z,20.40
2023-01-23T13:36:56.656Z,17.67
2023-01-23T13:38:02.103Z,18.83
2023-01-23T13:39:22.338Z,19.30
2023-01-23T13:40:27.520Z,27.05
2023-01-23T13:41:43.965Z,26.80
2023-01-23T13:42:52.768Z,20.13
2023-01-23T13:44:00.871Z,19.88
2023-01-23T13:45:27.731Z,19.23
2023-01-23T14:21:43.078Z,18.33
2023-01-23T14:23:07.423Z,17.70
2023-01-23T14:24:23.402Z,19.27
2023-01-23T14:25:38.438Z,18.55
2023-01-23T14:26:53.175Z,17.67
2023-01-23T14:29:29.967Z,18.10
2023-01-23T14:30:33.347Z,17.80
2023-01-23T14:31:37.396Z,18.38
2023-01-23T14:32:39.780Z,17.88
2023-01-23T14:33:45.315Z,17.50
2023-01-23T14:34:47.969Z,17.80
2023-01-23T14:35:51.412Z,18.83
2023-01-23T14:37:19.641Z,18.48
2023-01-23T14:38:31.790Z,18.20
2023-01-23T14:39:35.740Z,16.27
2023-01-23T14:40:50.623Z,17.52
2023-01-23T14:41:59.073Z,17.45
2023-01-23T14:43:08.060Z,18.50
2023-01-23T14:44:24.050Z,19.33
2023-01-23T14:45:29.113Z,17.95
2023-01-23T14:46:38.145Z,17.80
2023-01-23T14:47:48.903Z,17.15
2023-01-23T14:48:56.342Z,18.35
2023-01-23T14:49:59.283Z,18.08
2023-01-23T14:51:07.723Z,18.15
2023-01-23T14:52:25.519Z,19.60
2023-01-23T14:53:27.631Z,20.00
2023-01-23T14:54:33.170Z,18.92
2023-01-23T14:55:40.029Z,18.55
2023-01-23T14:56:44.290Z,17.27
2023-01-23T14:57:46.913Z,16.98
2023-01-23T14:58:49.040Z,18.92